Time;durP1;ratioP1;P1;durP2;ratioP2;P2;SDS_P1;SDS_P2;PMS_P1;PMS_P2;Temp;Humidity;BMP_temperature;BMP_pressure;BME280_temperature;BME280_humidity;BME280_pressure;Samples;Min_cycle;Max_cycle;Signal;HPM_P1;HPM_P2
2023/10/01 00:00:25;;;;;;;;;;;15.70;60.00;;;11.47;100.00;96439.22;5002792;28;19920;-45
2023/10/01 00:02:53;;;;;;;;;;;15.70;60.00;;;11.50;100.00;96443.22;4994271;28;19975;-45
2023/10/01 00:05:23;;;;;;;;;;;15.70;60.00;;;11.49;100.00;96452.28;5002075;28;20286;-48
2023/10/01 00:07:51;;;;;;;;;;;15.70;60.00;;;11.51;100.00;96451.00;4991564;28;20016;-51
2023/10/01 00:10:19;;;;;;;;;;;15.70;60.40;;;11.53;100.00;96451.56;5006654;28;19909;-49
2023/10/01 00:12:50;;;;;;;;;;;15.70;60.00;;;11.51;100.00;96451.00;5014245;28;19920;-47
2023/10/01 00:15:21;;;;;;;;;;;15.70;60.00;;;11.50;100.00;96446.72;4994451;28;20431;-48
2023/10/01 00:17:48;;;;;;;;;;;15.70;60.00;;;11.50;100.00;96445.91;5013410;28;19913;-48
2023/10/01 00:20:25;;;;;;;;;;;15.80;60.10;;;11.48;100.00;96454.16;4999638;28;19910;-48
2023/10/01 00:22:59;;;;;;;;;;;15.70;60.00;;;11.38;100.00;96454.03;5005012;28;19955;-47
2023/10/01 00:25:27;;;;;;;;;;;15.70;60.00;;;11.35;100.00;96446.53;5005470;28;19963;-48
2023/10/01 00:27:54;;;;;;;;;;;15.70;60.00;;;11.35;100.00;96452.69;5002546;28;19916;-49
2023/10/01 00:30:23;;;;;;;;;;;15.70;60.10;;;11.34;100.00;96458.25;5009006;28;19912;-46
2023/10/01 00:32:49;;;;;;;;;;;15.70;60.10;;;11.29;100.00;96456.34;5002899;28;19920;-44
2023/10/01 00:35:17;;;;;;;;;;;15.60;60.10;;;11.26;100.00;96451.50;5002957;28;20388;-50
2023/10/01 00:37:43;;;;;;;;;;;15.60;60.20;;;11.23;100.00;96454.66;5002208;28;19913;-45
2023/10/01 00:40:10;;;;;;;;;;;15.50;60.20;;;11.21;100.00;96450.63;5002399;28;19919;-49
2023/10/01 00:42:38;;;;;;;;;;;15.50;60.20;;;11.18;100.00;96453.78;5003575;28;19910;-47
2023/10/01 00:45:11;;;;;;;;;;;15.50;60.30;;;11.14;100.00;96447.31;5007367;28;20285;-48
2023/10/01 00:47:40;;;;;;;;;;;15.50;60.30;;;11.15;100.00;96444.41;4995709;28;20199;-47
2023/10/01 00:50:11;;;;;;;;;;;15.40;60.40;;;11.17;100.00;96441.50;5005599;28;19909;-48
2023/10/01 00:52:38;;;;;;;;;;;15.40;60.50;;;11.17;100.00;96439.63;4998326;28;19909;-49
2023/10/01 00:55:08;;;;;;;;;;;15.40;60.70;;;11.16;100.00;96443.38;5005640;28;19909;-44
2023/10/01 00:57:37;;;;;;;;;;;15.40;60.70;;;11.11;100.00;96446.75;4996273;28;19909;-48
2023/10/01 01:00:09;;;;;;;;;;;15.40;60.80;;;11.09;100.00;96443.56;5008049;28;19917;-44
2023/10/01 01:06:23;;;;;;;;;;;15.30;60.80;;;10.97;100.00;96429.53;5004617;28;20037;-45
2023/10/01 01:08:54;;;;;;;;;;;15.20;60.90;;;10.96;100.00;96429.75;5006435;28;19913;-46
2023/10/01 01:11:26;;;;;;;;;;;15.20;61.00;;;10.97;100.00;96428.69;5008605;28;19932;-44
2023/10/01 01:13:51;;;;;;;;;;;15.20;61.10;;;10.96;100.00;96424.41;5010993;28;19909;-47
2023/10/01 01:16:20;;;;;;;;;;;15.20;61.10;;;10.92;100.00;96434.78;5014589;28;19920;-50
2023/10/01 01:18:51;;;;;;;;;;;15.20;61.10;;;10.90;100.00;96434.19;5004922;28;20393;-49
2023/10/01 01:21:18;;;;;;;;;;;15.20;61.20;;;10.86;100.00;96433.88;5006186;28;20317;-47
2023/10/01 01:23:46;;;;;;;;;;;15.10;61.10;;;10.84;100.00;96435.19;5004195;28;19963;-45
2023/10/01 01:26:20;;;;;;;;;;;15.10;61.20;;;10.80;100.00;96426.88;4997439;28;19951;-48
2023/10/01 01:28:48;;;;;;;;;;;15.10;61.20;;;10.69;100.00;96427.78;4997843;28;19994;-50
2023/10/01 01:31:16;;;;;;;;;;;15.00;61.20;;;10.64;100.00;96431.19;5011991;28;20395;-48
2023/10/01 01:33:44;;;;;;;;;;;15.00;61.20;;;10.67;100.00;96424.56;5013849;28;20217;-48
2023/10/01 01:36:14;;;;;;;;;;;15.00;61.30;;;10.63;100.00;96423.44;5011507;28;19952;-46
2023/10/01 01:39:35;;;;;;;;;;;14.90;61.20;;;10.61;100.00;96421.00;5002040;28;20012;-45
2023/10/01 01:42:02;;;;;;;;;;;14.90;61.30;;;10.58;100.00;96423.34;4995854;28;20261;-46
2023/10/01 01:44:28;;;;;;;;;;;14.90;61.40;;;10.56;100.00;96414.78;5000222;28;20013;-46
2023/10/01 01:46:59;;;;;;;;;;;14.80;61.40;;;10.51;100.00;96415.53;5009883;28;19909;-50
2023/10/01 01:49:25;;;;;;;;;;;14.80;61.40;;;10.49;100.00;96411.50;5011528;28;19909;-47
2023/10/01 01:51:59;;;;;;;;;;;14.80;61.50;;;10.47;100.00;96403.75;5005863;28;19915;-44
2023/10/01 01:54:30;;;;;;;;;;;14.80;61.50;;;10.44;100.00;96414.09;5007423;28;19913;-44
2023/10/01 01:56:57;;;;;;;;;;;14.80;61.60;;;10.43;100.00;96405.28;5001467;28;19998;-47
2023/10/01 01:59:27;;;;;;;;;;;14.70;61.60;;;10.44;100.00;96408.78;5005725;28;19916;-44
2023/10/01 02:01:55;;;;;;;;;;;14.70;61.70;;;10.43;100.00;96410.59;5005540;28;19909;-45
2023/10/01 02:04:24;;;;;;;;;;;14.70;61.80;;;10.40;100.00;96417.25;5001188;28;19913;-44
2023/10/01 02:06:54;;;;;;;;;;;14.70;61.90;;;10.42;100.00;96423.13;5007603;28;19963;-48
2023/10/01 02:09:20;;;;;;;;;;;14.70;61.90;;;10.42;100.00;96417.00;5006275;28;20282;-45
2023/10/01 02:11:50;;;;;;;;;;;14.70;62.30;;;10.47;100.00;96414.41;5011441;28;19913;-46
2023/10/01 02:14:35;;;;;;;;;;;14.70;62.20;;;10.56;100.00;96417.44;5001757;28;20288;-48
2023/10/01 02:17:15;;;;;;;;;;;14.80;62.30;;;10.61;100.00;96418.34;5000867;28;19909;-43
2023/10/01 02:19:46;;;;;;;;;;;14.80;62.30;;;10.68;100.00;96418.16;5000405;28;19909;-47
2023/10/01 02:22:13;;;;;;;;;;;14.90;62.50;;;10.75;100.00;96410.84;5002262;28;19918;-43
2023/10/01 02:24:45;;;;;;;;;;;14.90;62.50;;;10.86;100.00;96407.22;5006764;28;20011;-44
2023/10/01 02:27:18;;;;;;;;;;;15.00;62.60;;;11.00;100.00;96413.03;5008685;28;19917;-45
2023/10/01 02:29:45;;;;;;;;;;;15.10;62.80;;;11.08;100.00;96409.13;5007899;28;19913;-45
2023/10/01 02:32:17;;;;;;;;;;;15.10;62.80;;;11.07;100.00;96402.19;5009457;28;20272;-45
2023/10/01 02:34:43;;;;;;;;;;;15.20;62.80;;;11.05;100.00;96404.28;5005304;28;19913;-44
2023/10/01 02:37:10;;;;;;;;;;;15.20;62.70;;;11.00;100.00;96401.53;5010102;28;20000;-44
2023/10/01 02:39:39;;;;;;;;;;;15.20;62.50;;;11.01;100.00;96401.31;5007067;28;19915;-48
2023/10/01 02:44:47;;;;;;;;;;;15.20;62.60;;;11.01;100.00;96405.84;5007434;28;19971;-46
2023/10/01 02:47:17;;;;;;;;;;;15.20;62.50;;;10.95;100.00;96399.63;5003293;28;19917;-46
2023/10/01 02:49:51;;;;;;;;;;;15.20;62.40;;;10.92;100.00;96400.13;5005113;28;19963;-47
2023/10/01 02:52:22;;;;;;;;;;;15.20;63.20;;;10.89;100.00;96397.94;5009222;28;19971;-43
2023/10/01 02:54:57;;;;;;;;;;;15.20;62.50;;;10.85;100.00;96405.63;4999976;28;20403;-45
2023/10/01 02:57:24;;;;;;;;;;;15.20;62.40;;;10.84;100.00;96405.88;5006076;28;19956;-45
2023/10/01 03:00:20;;;;;;;;;;;15.10;62.40;;;10.82;100.00;96408.78;5006807;28;19924;-44
2023/10/01 03:02:53;;;;;;;;;;;15.10;62.40;;;10.77;100.00;96416.69;4983123;28;19916;-46
2023/10/01 03:07:51;;;;;;;;;;;15.00;62.40;;;10.66;100.00;96404.31;5002903;28;19916;-47
2023/10/01 03:10:26;;;;;;;;;;;15.00;62.40;;;10.61;100.00;96410.34;5009130;28;19909;-44
2023/10/01 03:13:17;;;;;;;;;;;14.90;62.40;;;10.54;100.00;96404.38;5007525;28;20032;-47
2023/10/01 03:16:39;;;;;;;;;;;14.90;62.40;;;10.49;100.00;96403.50;5000452;28;19913;-48
2023/10/01 03:18:34;;;;;;;;;;;14.90;62.50;;;10.42;100.00;96406.34;5008062;28;19949;-45
2023/10/01 03:21:07;;;;;;;;;;;14.80;62.50;;;10.39;100.00;96412.16;5004214;28;19909;-46
2023/10/01 03:23:33;;;;;;;;;;;14.80;62.60;;;10.36;100.00;96401.97;5011341;28;19955;-44
2023/10/01 03:26:05;;;;;;;;;;;14.80;62.60;;;10.35;100.00;96416.34;5002950;28;19922;-45
2023/10/01 03:31:22;;;;;;;;;;;14.70;62.70;;;10.31;100.00;96401.88;4988937;28;19985;-44
2023/10/01 03:33:53;;;;;;;;;;;14.60;62.70;;;10.20;100.00;96400.91;4988527;28;20295;-44
2023/10/01 03:36:29;;;;;;;;;;;14.60;62.70;;;10.16;100.00;96395.25;4987366;28;20004;-46
2023/10/01 03:47:08;;;;;;;;;;;14.40;62.80;;;10.01;100.00;96405.66;4992813;28;19959;-45
2023/10/01 03:49:44;;;;;;;;;;;14.40;62.90;;;10.02;100.00;96407.25;4992061;28;19913;-47
2023/10/01 03:52:14;;;;;;;;;;;14.30;63.00;;;9.99;100.00;96409.59;4991734;28;20357;-44
2023/10/01 03:57:25;;;;;;;;;;;14.30;63.00;;;9.90;100.00;96404.69;4990431;28;19909;-46
2023/10/01 04:00:10;;;;;;;;;;;14.20;63.00;;;9.85;100.00;96401.91;5068129;28;19965;-44
2023/10/01 04:05:56;;;;;;;;;;;14.20;63.10;;;9.75;100.00;96399.09;5047326;28;19909;-42
2023/10/01 04:07:57;;;;;;;;;;;14.20;63.10;;;9.69;100.00;96400.84;5035990;28;20003;-44
2023/10/01 04:12:54;;;;;;;;;;;14.10;63.20;;;9.64;100.00;96402.59;5042231;28;19916;-47
2023/10/01 04:15:29;;;;;;;;;;;14.00;63.20;;;9.60;100.00;96399.63;5047966;28;19908;-48
2023/10/01 04:20:48;;;;;;;;;;;14.00;63.20;;;9.60;100.00;96406.78;5042965;28;20022;-45
2023/10/01 04:23:25;;;;;;;;;;;13.90;63.30;;;9.60;100.00;96402.28;5047306;28;19931;-51
2023/10/01 04:25:51;;;;;;;;;;;13.90;63.30;;;9.57;100.00;96399.28;5045419;28;20402;-50
2023/10/01 04:28:20;;;;;;;;;;;13.90;63.30;;;9.56;100.00;96401.13;5048277;28;19908;-48
2023/10/01 04:30:51;;;;;;;;;;;13.90;63.40;;;9.56;100.00;96405.63;5047882;28;20007;-45
2023/10/01 04:33:23;;;;;;;;;;;13.90;63.50;;;9.55;100.00;96410.16;5040511;28;19944;-45
2023/10/01 04:35:58;;;;;;;;;;;13.90;63.50;;;9.52;100.00;96399.97;5042139;28;19909;-47
2023/10/01 04:38:29;;;;;;;;;;;13.90;63.50;;;9.46;100.00;96407.09;5058637;28;19917;-45
2023/10/01 04:41:03;;;;;;;;;;;13.80;63.40;;;9.43;100.00;96401.41;5067396;28;19931;-47
2023/10/01 04:43:35;;;;;;;;;;;13.80;63.50;;;9.41;100.00;96401.66;5050756;28;19908;-45
2023/10/01 04:46:08;;;;;;;;;;;13.80;63.60;;;9.40;100.00;96397.38;5067302;28;20353;-45
2023/10/01 04:48:36;;;;;;;;;;;13.80;63.60;;;9.40;100.00;96409.84;5052636;28;20354;-45
2023/10/01 04:51:10;;;;;;;;;;;13.70;64.50;;;9.38;100.00;96406.63;5067316;28;19916;-46
2023/10/01 04:53:39;;;;;;;;;;;13.80;63.70;;;9.35;100.00;96405.25;5055155;28;19913;-47
2023/10/01 04:56:10;;;;;;;;;;;13.70;63.70;;;9.30;100.00;96401.69;5065275;28;19948;-46
2023/10/01 04:58:37;;;;;;;;;;;13.70;63.70;;;9.29;100.00;96403.53;5067100;28;19916;-45
2023/10/01 05:01:13;;;;;;;;;;;13.70;63.70;;;9.26;100.00;96404.00;5061863;28;19916;-45
2023/10/01 05:03:39;;;;;;;;;;;13.70;63.70;;;9.22;100.00;96397.56;5065543;28;19912;-45
2023/10/01 05:06:14;;;;;;;;;;;13.70;63.80;;;9.23;100.00;96402.63;5059660;28;19931;-45
2023/10/01 05:08:42;;;;;;;;;;;13.60;63.70;;;9.20;100.00;96405.75;5066971;28;19958;-46
2023/10/01 05:11:12;;;;;;;;;;;13.60;63.70;;;9.18;100.00;96402.53;5051843;28;20325;-45
2023/10/01 05:13:47;;;;;;;;;;;13.60;63.80;;;9.18;100.00;96405.19;5047817;28;19954;-46
2023/10/01 05:16:18;;;;;;;;;;;13.60;63.90;;;9.15;100.00;96403.00;5049159;28;19969;-45
2023/10/01 05:18:46;;;;;;;;;;;13.60;64.00;;;9.14;100.00;96412.00;5050666;28;20287;-48
2023/10/01 05:21:12;;;;;;;;;;;13.50;63.90;;;9.16;100.00;96401.97;5053462;28;19908;-50
2023/10/01 05:23:39;;;;;;;;;;;13.60;64.00;;;9.16;100.00;96407.28;5043842;28;19944;-48
2023/10/01 05:26:11;;;;;;;;;;;13.60;64.10;;;9.16;100.00;96409.13;5059467;22;19975;-48
2023/10/01 05:28:42;;;;;;;;;;;13.50;64.10;;;9.14;100.00;96413.88;5033048;28;19955;-48
2023/10/01 05:31:12;;;;;;;;;;;13.50;64.10;;;9.13;100.00;96413.06;5024732;28;20306;-45
2023/10/01 05:33:39;;;;;;;;;;;13.50;64.10;;;9.14;100.00;96416.53;5032626;28;19913;-48
2023/10/01 05:36:06;;;;;;;;;;;13.50;64.10;;;9.13;100.00;96422.91;5021967;28;19915;-47
2023/10/01 05:38:34;;;;;;;;;;;13.60;64.20;;;9.07;100.00;96421.16;5013196;28;19970;-45
2023/10/01 05:41:13;;;;;;;;;;;13.60;64.10;;;9.11;100.00;96417.00;5012221;28;20003;-47
2023/10/01 05:43:52;;;;;;;;;;;13.60;64.10;;;9.15;100.00;96429.59;5005161;28;19913;-45
2023/10/01 05:46:18;;;;;;;;;;;13.60;64.10;;;9.17;100.00;96424.84;5005680;28;19923;-44
2023/10/01 05:48:49;;;;;;;;;;;13.60;64.10;;;9.20;100.00;96428.88;4999887;28;19917;-46
2023/10/01 05:51:18;;;;;;;;;;;13.60;64.20;;;9.24;100.00;96432.66;4995264;28;20513;-50
2023/10/01 05:53:45;;;;;;;;;;;13.60;64.20;;;9.25;100.00;96432.44;4993565;28;20399;-48
2023/10/01 05:56:17;;;;;;;;;;;13.60;64.10;;;9.27;100.00;96426.88;4996756;28;20478;-45
2023/10/01 05:58:43;;;;;;;;;;;13.70;64.20;;;9.31;100.00;96432.53;4997713;28;19972;-48
2023/10/01 06:01:16;;;;;;;;;;;13.70;64.30;;;9.33;100.00;96439.25;4998600;28;19913;-45
2023/10/01 06:03:44;;;;;;;;;;;13.70;65.00;;;9.36;100.00;96438.78;4999182;28;19963;-47
2023/10/01 06:06:23;;;;;;;;;;;13.80;64.30;;;9.39;100.00;96435.63;5000489;28;20457;-44
2023/10/01 06:08:58;;;;;;;;;;;13.90;64.30;;;9.42;100.00;96439.69;4998384;28;19909;-46
2023/10/01 06:11:38;;;;;;;;;;;13.90;64.20;;;9.45;100.00;96442.69;4998290;28;19913;-45
2023/10/01 06:14:06;;;;;;;;;;;14.00;64.20;;;9.48;100.00;96434.22;4999389;28;19917;-46
2023/10/01 06:16:37;;;;;;;;;;;14.00;64.20;;;9.50;100.00;96436.66;4982610;28;20311;-46
2023/10/01 06:19:07;;;;;;;;;;;14.10;64.10;;;9.57;100.00;96439.19;4997930;28;20004;-46
2023/10/01 06:21:33;;;;;;;;;;;14.10;64.10;;;9.64;100.00;96445.16;4998125;28;19913;-51
2023/10/01 06:24:10;;;;;;;;;;;14.20;64.10;;;9.66;100.00;96443.88;5004988;28;20261;-53
2023/10/01 06:26:36;;;;;;;;;;;14.30;64.20;;;9.71;100.00;96437.84;5012540;28;20394;-53
2023/10/01 06:29:08;;;;;;;;;;;14.30;64.10;;;9.74;100.00;96440.03;5011735;28;19909;-52
2023/10/01 06:34:24;;;;;;;;;;;14.50;64.10;;;9.84;100.00;96448.22;5010931;28;19955;-54
2023/10/01 06:36:56;;;;;;;;;;;14.60;64.10;;;9.90;100.00;96443.78;5005320;28;19909;-49
2023/10/01 06:39:24;;;;;;;;;;;14.60;64.00;;;9.99;100.00;96441.53;5011094;28;20264;-53
2023/10/01 06:41:52;;;;;;;;;;;14.80;64.10;;;10.11;100.00;96445.75;5008482;28;19909;-47
2023/10/01 06:44:22;;;;;;;;;;;14.80;64.10;;;10.25;100.00;96440.94;5006673;28;19951;-51
2023/10/01 06:46:51;;;;;;;;;;;15.00;64.10;;;10.40;100.00;96443.03;5011976;28;19909;-48
2023/10/01 06:49:18;;;;;;;;;;;15.10;64.40;;;10.50;100.00;96443.22;5005726;28;19940;-48
2023/10/01 06:51:45;;;;;;;;;;;15.20;64.10;;;10.60;100.00;96445.25;4994910;28;19979;-48
2023/10/01 06:54:14;;;;;;;;;;;15.30;64.80;;;10.73;100.00;96450.22;5003757;28;20300;-47
2023/10/01 06:56:44;;;;;;;;;;;15.50;64.10;;;10.88;100.00;96446.97;5011557;28;20314;-49
2023/10/01 07:01:47;;;;;;;;;;;15.90;63.80;;;11.29;100.00;96444.88;4999374;28;20267;-47
2023/10/01 07:04:20;;;;;;;;;;;16.20;63.70;;;11.65;100.00;96447.94;5008253;28;20390;-46
2023/10/01 07:06:51;;;;;;;;;;;16.60;63.40;;;12.01;100.00;96455.31;4996429;28;20388;-50
2023/10/01 07:09:24;;;;;;;;;;;16.90;63.30;;;12.39;100.00;96447.38;5007841;28;19962;-47
2023/10/01 07:11:58;;;;;;;;;;;17.40;63.20;;;12.69;100.00;96446.78;5003807;28;20257;-49
2023/10/01 07:14:38;;;;;;;;;;;17.80;62.90;;;12.83;100.00;96441.81;5004665;28;19913;-47
2023/10/01 07:17:09;;;;;;;;;;;18.20;62.60;;;13.10;100.00;96439.00;5009843;28;19917;-51
2023/10/01 07:19:37;;;;;;;;;;;18.60;62.20;;;13.37;100.00;96438.91;5000294;28;20298;-48
2023/10/01 07:22:06;;;;;;;;;;;19.00;61.80;;;13.61;100.00;96439.28;5010699;28;20621;-47
2023/10/01 07:24:36;;;;;;;;;;;19.40;61.50;;;13.82;100.00;96440.97;4997572;28;19910;-49
2023/10/01 07:27:03;;;;;;;;;;;19.80;61.20;;;14.03;100.00;96438.31;5009121;28;19917;-50
2023/10/01 07:29:33;;;;;;;;;;;20.10;60.90;;;14.31;100.00;96445.84;5005618;28;19937;-52
2023/10/01 07:32:12;;;;;;;;;;;20.40;60.60;;;14.63;100.00;96435.97;5008156;28;19956;-49
2023/10/01 07:34:48;;;;;;;;;;;20.80;60.30;;;15.03;100.00;96429.72;5010710;28;19963;-47
2023/10/01 07:37:23;;;;;;;;;;;21.20;60.20;;;15.27;100.00;96438.78;4990717;28;19913;-48
2023/10/01 07:40:08;;;;;;;;;;;21.50;59.90;;;15.55;100.00;96449.19;4991588;28;20265;-50
2023/10/01 07:42:46;;;;;;;;;;;21.90;59.80;;;15.84;100.00;96446.66;4985363;28;20016;-48
2023/10/01 07:45:17;;;;;;;;;;;22.20;59.60;;;16.10;100.00;96453.47;4993602;28;19913;-48
2023/10/01 07:47:44;;;;;;;;;;;22.60;59.40;;;16.36;100.00;96450.63;4997515;28;19909;-49
2023/10/01 07:50:13;;;;;;;;;;;22.90;59.20;;;16.75;100.00;96452.47;4991602;28;19909;-50
2023/10/01 07:52:44;;;;;;;;;;;23.20;59.20;;;17.17;98.16;96451.81;4990981;28;19909;-49
2023/10/01 07:55:29;;;;;;;;;;;23.50;59.10;;;17.56;96.17;96457.03;4990690;28;19909;-48
2023/10/01 08:00:43;;;;;;;;;;;24.30;58.50;;;18.18;87.78;96459.78;4992712;28;19955;-49
2023/10/01 08:05:49;;;;;;;;;;;25.00;57.70;;;18.68;84.44;96457.41;4995340;28;20264;-48
2023/10/01 08:08:35;;;;;;;;;;;25.30;57.30;;;19.08;85.06;96460.50;4991267;28;20517;-52
2023/10/01 08:11:02;;;;;;;;;;;25.60;57.00;;;19.51;80.61;96462.94;4987198;28;19932;-53
2023/10/01 08:13:30;;;;;;;;;;;25.90;56.60;;;19.89;78.92;96465.47;4997162;28;19910;-53
2023/10/01 08:16:01;;;;;;;;;;;26.20;56.40;;;20.20;75.62;96462.09;4991096;28;20382;-51
2023/10/01 08:18:34;;;;;;;;;;;26.60;56.10;;;20.54;70.80;96461.63;4990374;28;20368;-53
2023/10/01 08:21:04;;;;;;;;;;;26.90;55.70;;;20.84;70.25;96462.78;4991014;28;19909;-54
2023/10/01 08:23:36;;;;;;;;;;;27.20;55.20;;;21.24;69.73;96468.25;4989131;28;19910;-50
2023/10/01 08:26:43;;;;;;;;;;;27.40;54.70;;;21.63;65.62;96459.38;4994139;28;19944;-53
2023/10/01 08:28:59;;;;;;;;;;;27.70;54.40;;;21.98;65.50;96458.66;4987829;28;19916;-57
2023/10/01 08:34:24;;;;;;;;;;;28.30;54.20;;;22.73;60.70;96470.22;4989984;28;19945;-57
2023/10/01 08:36:58;;;;;;;;;;;28.60;53.10;;;22.94;60.91;96463.03;4994954;28;19909;-52
2023/10/01 08:42:10;;;;;;;;;;;29.10;52.20;;;23.36;58.28;96457.00;4989613;28;19920;-54
2023/10/01 08:45:03;;;;;;;;;;;29.40;51.80;;;23.57;57.63;96471.47;4991441;28;20008;-52
2023/10/01 08:47:36;;;;;;;;;;;29.70;51.50;;;23.41;57.00;96467.69;4992130;28;20340;-52
2023/10/01 08:52:55;;;;;;;;;;;30.10;50.70;;;23.72;56.48;96467.41;5007033;28;19916;-58
2023/10/01 09:00:51;;;;;;;;;;;30.70;49.50;;;24.47;55.50;96470.31;4999262;28;19913;-55
2023/10/01 09:03:28;;;;;;;;;;;30.80;49.30;;;24.65;54.47;96469.06;5006258;28;19916;-54
2023/10/01 09:06:04;;;;;;;;;;;31.10;49.00;;;24.85;53.48;96469.38;5001820;28;19913;-52
2023/10/01 09:08:43;;;;;;;;;;;31.20;48.50;;;24.96;52.77;96476.00;5009848;28;19909;-51
2023/10/01 09:11:15;;;;;;;;;;;31.40;48.20;;;25.05;52.82;96465.00;5002907;28;19917;-49
2023/10/01 09:14:14;;;;;;;;;;;31.50;47.90;;;25.10;53.24;96475.69;4994683;28;20414;-50
2023/10/01 09:16:43;;;;;;;;;;;31.60;47.30;;;25.22;52.01;96469.50;5010428;28;19975;-49
2023/10/01 09:19:37;;;;;;;;;;;31.70;47.00;;;25.00;52.31;96463.28;5006469;28;19959;-49
2023/10/01 09:22:22;;;;;;;;;;;31.70;46.60;;;24.82;53.43;96468.13;5010180;28;19913;-52
2023/10/01 09:25:01;;;;;;;;;;;31.70;46.30;;;24.95;53.10;96470.91;4998924;28;19910;-51
2023/10/01 09:27:30;;;;;;;;;;;31.70;46.00;;;25.01;52.67;96469.53;5001721;28;19956;-50
2023/10/01 09:32:53;;;;;;;;;;;31.80;45.50;;;25.16;51.97;96485.28;5009979;28;19963;-57
2023/10/01 09:35:41;;;;;;;;;;;31.70;45.30;;;25.04;51.78;96477.84;5004631;28;20023;-52
2023/10/01 09:38:18;;;;;;;;;;;31.70;45.10;;;24.97;50.79;96471.34;5006156;28;19920;-49
2023/10/01 09:40:46;;;;;;;;;;;31.70;44.80;;;24.90;51.59;96475.41;5013285;28;19949;-50
2023/10/01 09:43:18;;;;;;;;;;;31.80;44.60;;;25.06;51.84;96475.56;5006876;28;19917;-52
2023/10/01 09:45:47;;;;;;;;;;;31.70;44.50;;;25.00;51.48;96471.47;5013314;28;19917;-52
2023/10/01 09:48:29;;;;;;;;;;;31.80;44.40;;;25.02;50.64;96476.59;5008108;28;19920;-53
2023/10/01 09:51:16;;;;;;;;;;;31.80;44.00;;;24.88;51.85;96476.88;5010005;28;20342;-54
2023/10/01 09:53:55;;;;;;;;;;;31.80;43.80;;;25.02;51.40;96471.13;5006912;28;19910;-50
2023/10/01 09:56:27;;;;;;;;;;;31.90;43.70;;;24.89;51.89;96478.47;5011917;28;20287;-51
2023/10/01 09:59:07;;;;;;;;;;;31.90;43.40;;;24.83;51.87;96472.44;5010338;28;19920;-55
2023/10/01 10:01:36;;;;;;;;;;;31.90;43.20;;;24.76;51.73;96469.47;5007357;28;19934;-52
2023/10/01 10:04:06;;;;;;;;;;;31.90;43.00;;;24.83;52.62;96466.19;5012376;28;20383;-53
2023/10/01 10:06:34;;;;;;;;;;;31.90;43.00;;;24.92;51.35;96464.19;5009491;28;19978;-50
2023/10/01 10:09:03;;;;;;;;;;;31.90;42.80;;;24.97;52.61;96463.97;5010495;28;19931;-50
2023/10/01 10:11:45;;;;;;;;;;;32.00;42.80;;;24.93;52.92;96465.78;5011577;28;19909;-51
2023/10/01 10:14:26;;;;;;;;;;;32.00;42.50;;;25.27;51.55;96463.84;4998355;28;20019;-50
2023/10/01 10:16:59;;;;;;;;;;;32.10;42.50;;;25.25;51.50;96466.09;5011776;28;19945;-49
2023/10/01 10:19:30;;;;;;;;;;;32.20;42.30;;;25.11;51.32;96469.13;5005294;28;20372;-55
2023/10/01 10:24:46;;;;;;;;;;;32.30;41.90;;;25.23;50.68;96468.38;5008076;28;19912;-51
2023/10/01 10:27:24;;;;;;;;;;;32.40;41.70;;;25.09;50.89;96465.94;5012436;28;20464;-51
2023/10/01 10:29:56;;;;;;;;;;;32.50;41.70;;;24.95;51.84;96462.72;4990106;28;19913;-50
2023/10/01 10:32:44;;;;;;;;;;;32.60;41.60;;;25.05;51.73;96460.34;5009129;28;19936;-51
2023/10/01 10:35:15;;;;;;;;;;;32.60;41.40;;;25.20;52.45;96458.16;5010218;28;20321;-52
2023/10/01 10:37:45;;;;;;;;;;;32.70;41.40;;;25.07;51.62;96458.09;4995561;28;20245;-51
2023/10/01 10:42:44;;;;;;;;;;;32.80;41.20;;;25.11;51.56;96458.22;5006714;28;19909;-50
2023/10/01 10:45:22;;;;;;;;;;;32.90;41.00;;;25.09;51.95;96458.53;5012457;28;19959;-52
2023/10/01 10:48:02;;;;;;;;;;;32.90;40.80;;;25.12;51.77;96460.63;5006657;28;19913;-50
2023/10/01 10:50:53;;;;;;;;;;;33.00;40.70;;;25.29;51.69;96456.09;5007695;28;19913;-55
2023/10/01 10:53:40;;;;;;;;;;;33.10;40.70;;;25.37;51.10;96455.22;5000778;28;20394;-53
2023/10/01 10:56:14;;;;;;;;;;;33.10;40.40;;;25.41;51.50;96447.94;4992749;28;19916;-54
2023/10/01 10:59:13;;;;;;;;;;;33.20;40.40;;;25.51;50.58;96452.97;5011475;28;19920;-50
2023/10/01 11:01:47;;;;;;;;;;;33.30;40.30;;;25.25;51.69;96452.47;5008233;28;19913;-53
2023/10/01 11:04:16;;;;;;;;;;;33.40;40.00;;;25.23;51.33;96452.81;5011215;28;19923;-52
2023/10/01 11:06:43;;;;;;;;;;;33.40;39.70;;;25.29;52.02;96448.75;5007102;28;19926;-50
2023/10/01 11:09:31;;;;;;;;;;;33.50;39.50;;;25.44;51.21;96444.53;5010049;28;19940;-52
2023/10/01 11:12:04;;;;;;;;;;;33.50;39.40;;;25.52;51.76;96443.66;4999101;28;19910;-49
2023/10/01 11:14:30;;;;;;;;;;;33.60;39.30;;;25.69;50.36;96437.16;5011904;28;19996;-54
2023/10/01 11:16:56;;;;;;;;;;;33.70;39.30;;;25.55;50.12;96432.06;5011663;28;19909;-50
2023/10/01 11:19:28;;;;;;;;;;;33.80;39.20;;;25.65;50.28;96424.56;5008823;28;19913;-51
2023/10/01 11:22:00;;;;;;;;;;;33.80;38.90;;;25.73;49.76;96427.19;5011320;28;19963;-50
2023/10/01 11:24:53;;;;;;;;;;;33.90;38.80;;;25.78;50.23;96429.66;5004683;28;19909;-57
2023/10/01 11:30:12;;;;;;;;;;;34.00;38.60;;;26.42;49.10;96425.38;5022218;28;19932;-45
2023/10/01 11:32:58;;;;;;;;;;;34.20;38.60;;;26.15;47.84;96420.66;5010450;28;19909;-46
2023/10/01 11:35:32;;;;;;;;;;;34.40;39.20;;;25.64;49.25;96414.81;5019732;28;19908;-48
2023/10/01 11:38:22;;;;;;;;;;;34.50;38.30;;;25.87;49.22;96420.59;5018765;28;19980;-44
2023/10/01 11:41:09;;;;;;;;;;;34.50;38.10;;;25.94;48.57;96412.63;5031061;28;19916;-44
2023/10/01 11:44:02;;;;;;;;;;;34.60;38.00;;;26.37;47.53;96411.16;5027094;28;19951;-45
2023/10/01 11:49:34;;;;;;;;;;;34.90;38.00;;;26.67;46.37;96401.53;5012125;28;19915;-47
2023/10/01 11:52:25;;;;;;;;;;;35.10;37.90;;;26.85;46.23;96395.72;5029649;28;20003;-47
2023/10/01 11:54:54;;;;;;;;;;;35.20;37.60;;;27.03;45.45;96399.72;5023114;28;19909;-45
2023/10/01 11:57:24;;;;;;;;;;;35.30;37.40;;;27.35;45.48;96399.75;5014587;28;19909;-50
2023/10/01 11:59:56;;;;;;;;;;;35.50;37.30;;;27.45;45.40;96389.09;5027743;28;19916;-44
2023/10/01 12:02:32;;;;;;;;;;;35.70;37.10;;;27.60;45.18;96383.94;5011876;28;19916;-44
2023/10/01 12:05:04;;;;;;;;;;;35.80;36.90;;;27.94;43.63;96378.88;5012199;28;20379;-45
2023/10/01 12:07:39;;;;;;;;;;;35.90;36.90;;;28.07;43.87;96378.38;5006735;28;20360;-47
2023/10/01 12:10:08;;;;;;;;;;;36.00;36.80;;;27.97;44.75;96370.75;5009325;28;20368;-46
2023/10/01 12:12:37;;;;;;;;;;;36.20;36.60;;;28.03;43.44;96374.00;5008662;28;19920;-46
2023/10/01 12:17:52;;;;;;;;;;;36.40;36.30;;;28.27;43.39;96370.19;4969173;28;19913;-45
2023/10/01 12:20:28;;;;;;;;;;;36.50;36.10;;;28.48;42.81;96373.38;5010856;28;19909;-44
2023/10/01 12:23:11;;;;;;;;;;;36.60;36.00;;;28.49;43.50;96368.72;5019270;28;19920;-45
2023/10/01 12:28:24;;;;;;;;;;;36.80;35.70;;;28.45;42.25;96356.88;5025464;28;19917;-46
2023/10/01 12:31:10;;;;;;;;;;;36.90;35.60;;;28.38;42.55;96360.25;5011717;28;20421;-46
2023/10/01 12:33:58;;;;;;;;;;;37.00;35.20;;;28.49;42.02;96355.00;5018870;28;19917;-45
2023/10/01 12:36:31;;;;;;;;;;;36.90;35.10;;;28.43;42.16;96359.19;5023318;28;20293;-44
2023/10/01 12:47:01;;;;;;;;;;;37.10;34.90;;;29.13;41.24;96344.44;5029354;28;20011;-54
2023/10/01 12:49:28;;;;;;;;;;;37.20;34.90;;;29.34;41.25;96346.75;5019288;28;20367;-45
2023/10/01 12:51:54;;;;;;;;;;;37.30;34.70;;;28.89;40.42;96334.59;5030769;28;19909;-45
2023/10/01 12:54:25;;;;;;;;;;;37.40;34.50;;;28.87;40.90;96334.16;5013352;28;20325;-46
2023/10/01 12:57:18;;;;;;;;;;;37.40;34.40;;;28.87;40.48;96326.75;5028188;28;20344;-44
2023/10/01 12:59:46;;;;;;;;;;;37.40;34.10;;;28.76;40.16;96326.53;5027228;28;19917;-46
2023/10/01 13:02:22;;;;;;;;;;;37.50;33.80;;;28.87;38.66;96323.22;5032450;28;19909;-46